createdAt,value
2022-12-23T00:01:02.285Z,93.18
2022-12-23T00:05:01.687Z,92.94
2022-12-23T00:09:01.645Z,93.37
2022-12-23T00:13:20.318Z,92.98
2022-12-23T00:17:23.275Z,93.27
2022-12-23T00:21:23.601Z,92.97
2022-12-23T00:25:40.412Z,93.28
2022-12-23T00:29:40.336Z,93.24
2022-12-23T00:33:42.508Z,93.63
2022-12-23T00:37:41.909Z,93.81
2022-12-23T00:42:04.378Z,94.04
2022-12-23T00:45:19.376Z,94.19
2022-12-23T00:59:52.174Z,94.37
2022-12-23T01:03:10.500Z,94.33
2022-12-23T01:07:09.984Z,94.66
2022-12-23T01:11:11.009Z,94.66
2022-12-23T01:15:10.928Z,94.81
2022-12-23T01:19:10.618Z,95.35
2022-12-23T01:23:09.824Z,95.43
2022-12-23T01:27:09.014Z,95.73
2022-12-23T01:31:09.781Z,95.51
2022-12-23T01:35:09.229Z,95.30
2022-12-23T01:39:08.314Z,95.48
2022-12-23T01:43:22.618Z,95.47
2022-12-23T01:47:34.594Z,95.50
2022-12-23T01:51:33.319Z,95.65
2022-12-23T01:55:35.835Z,95.39
2022-12-23T01:59:54.613Z,95.99
2022-12-23T02:03:56.153Z,96.57
2022-12-23T02:08:14.899Z,96.60
2022-12-23T02:12:33.323Z,96.34
2022-12-23T02:16:50.584Z,96.47
2022-12-23T02:20:52.856Z,96.22
2022-12-23T02:24:57.819Z,96.19
2022-12-23T02:29:13.775Z,96.56
2022-12-23T02:33:31.478Z,96.76
2022-12-23T02:37:57.103Z,97.45
2022-12-23T02:42:12.003Z,98.23
2022-12-23T02:46:11.415Z,98.78
2022-12-23T02:50:29.038Z,97.92
2022-12-23T02:54:26.258Z,97.57
2022-12-23T02:57:44.294Z,97.43
2022-12-23T03:02:02.722Z,97.26
2022-12-23T03:05:27.805Z,96.91
2022-12-23T03:09:27.752Z,96.60
2022-12-23T03:13:33.062Z,96.67
2022-12-23T03:17:54.350Z,96.87
2022-12-23T03:21:14.959Z,96.78
2022-12-23T03:25:17.580Z,96.68
2022-12-23T03:29:24.571Z,96.59
2022-12-23T03:33:38.173Z,96.62
2022-12-23T03:37:39.152Z,96.60
2022-12-23T03:41:44.762Z,96.38
2022-12-23T03:45:59.621Z,96.48
2022-12-23T03:50:02.994Z,96.87
2022-12-23T03:54:25.703Z,97.34
2022-12-23T03:57:58.913Z,96.84
2022-12-23T04:02:24.423Z,96.79
2022-12-23T04:05:40.775Z,96.80
2022-12-23T04:09:40.893Z,96.50
2022-12-23T04:13:40.683Z,96.65
2022-12-23T04:17:40.118Z,97.11
2022-12-23T04:21:39.934Z,97.05
2022-12-23T04:25:38.950Z,96.43
2022-12-23T04:29:39.056Z,96.53
2022-12-23T04:33:52.062Z,96.71
2022-12-23T04:37:51.071Z,96.68
2022-12-23T04:41:50.040Z,96.99
2022-12-23T04:45:52.365Z,97.21
2022-12-23T04:49:51.803Z,96.53
2022-12-23T04:54:09.836Z,97.08
2022-12-23T04:57:28.623Z,96.74
2022-12-23T05:01:29.266Z,96.28
2022-12-23T05:05:28.677Z,95.81
2022-12-23T05:09:28.114Z,96.02
2022-12-23T05:13:27.134Z,96.17
2022-12-23T05:17:40.195Z,96.06
2022-12-23T05:21:40.027Z,96.59
2022-12-23T05:25:40.075Z,96.34
2022-12-23T05:29:39.592Z,96.55
2022-12-23T05:33:39.666Z,97.04
2022-12-23T05:37:38.571Z,96.67
2022-12-23T05:41:38.079Z,96.39
2022-12-23T05:45:38.260Z,96.05
2022-12-23T05:49:37.389Z,95.58
2022-12-23T05:53:36.592Z,95.88
2022-12-23T05:57:36.643Z,96.25
2022-12-23T06:01:36.321Z,96.28
2022-12-23T06:05:37.916Z,96.47
2022-12-23T06:09:50.595Z,96.05
2022-12-23T06:13:50.183Z,95.92
2022-12-23T06:17:49.654Z,96.15
2022-12-23T06:21:48.987Z,96.12
2022-12-23T06:25:48.153Z,95.94
2022-12-23T06:29:48.191Z,95.85
2022-12-23T06:33:47.352Z,96.08
2022-12-23T06:38:10.274Z,96.21
2022-12-23T06:41:24.175Z,96.86
2022-12-23T06:45:45.456Z,97.94
2022-12-23T06:49:00.601Z,96.89
2022-12-23T06:53:18.868Z,96.38
2022-12-23T06:56:37.382Z,95.86
2022-12-23T07:00:36.738Z,95.66
2022-12-23T07:04:35.573Z,95.89
2022-12-23T07:08:53.658Z,95.08
2022-12-23T07:12:31.087Z,95.01
2022-12-23T07:15:50.260Z,94.69
2022-12-23T07:19:49.801Z,94.93
2022-12-23T07:23:49.645Z,95.13
2022-12-23T07:27:52.840Z,95.82
2022-12-23T07:32:11.309Z,95.54
2022-12-23T07:35:30.033Z,95.22
2022-12-23T07:39:29.400Z,95.27
2022-12-23T07:43:47.454Z,95.24
2022-12-23T07:47:06.333Z,95.04
2022-12-23T07:51:24.143Z,94.45
2022-12-23T07:54:43.741Z,94.69
2022-12-23T07:58:20.616Z,94.77
2022-12-23T08:02:25.507Z,94.77
2022-12-23T08:06:02.155Z,95.63
2022-12-23T08:10:01.953Z,95.02
2022-12-23T08:14:01.471Z,94.71
2022-12-23T08:18:01.025Z,95.46
2022-12-23T08:22:18.770Z,95.60
2022-12-23T08:25:37.994Z,94.84
2022-12-23T08:29:36.830Z,95.26
2022-12-23T08:33:37.043Z,94.79
2022-12-23T08:37:36.357Z,95.94
2022-12-23T08:41:55.653Z,96.55
2022-12-23T08:45:13.362Z,94.64
2022-12-23T08:49:26.284Z,94.32
2022-12-23T08:53:25.131Z,94.11
2022-12-23T08:57:38.032Z,94.32
2022-12-23T09:01:50.914Z,93.86
2022-12-23T09:05:50.607Z,93.81
2022-12-23T09:09:49.937Z,93.85
2022-12-23T09:14:21.676Z,93.78
2022-12-23T09:17:40.535Z,94.41
2022-12-23T09:21:39.447Z,94.54
2022-12-23T09:26:16.506Z,94.35
2022-12-23T09:29:30.112Z,94.64
2022-12-23T09:33:29.477Z,93.81
2022-12-23T09:37:47.415Z,93.43
2022-12-23T09:41:15.218Z,93.85
2022-12-23T09:45:14.293Z,94.15
2022-12-23T09:53:40.263Z,94.27
2022-12-23T09:57:50.296Z,93.78
2022-12-23T10:01:59.509Z,93.32
2022-12-23T10:06:18.534Z,93.17
2022-12-23T10:10:23.012Z,93.15
2022-12-23T10:14:25.586Z,92.72
2022-12-23T10:18:28.192Z,92.34
2022-12-23T10:22:43.341Z,92.12
2022-12-23T10:27:00.816Z,92.22
2022-12-23T10:34:43.336Z,92.44
2022-12-23T10:38:45.575Z,91.84
2022-12-23T10:42:44.616Z,91.47
2022-12-23T10:47:13.582Z,91.55
2022-12-23T10:51:22.333Z,91.36
2022-12-23T10:55:33.786Z,91.27
2022-12-23T10:59:35.438Z,91.32
2022-12-23T11:03:41.482Z,91.37
2022-12-23T11:12:06.916Z,92.25
2022-12-23T11:16:12.376Z,91.97
2022-12-23T11:20:20.429Z,91.90
2022-12-23T11:24:21.121Z,92.14
2022-12-23T11:28:22.375Z,92.24
2022-12-23T11:32:26.026Z,92.34
2022-12-23T11:36:54.702Z,92.39
2022-12-23T11:40:07.675Z,92.10
2022-12-23T11:44:12.239Z,92.21
2022-12-23T11:48:30.955Z,92.21
2022-12-23T11:52:31.458Z,92.42
2022-12-23T11:56:39.826Z,92.28
2022-12-23T12:00:41.881Z,91.87
2022-12-23T12:04:43.442Z,91.95
2022-12-23T12:08:43.687Z,92.16
2022-12-23T12:12:43.243Z,92.36
2022-12-23T12:16:54.365Z,92.81
2022-12-23T12:20:55.841Z,92.39
2022-12-23T12:24:57.183Z,92.48
2022-12-23T12:29:15.280Z,92.46
2022-12-23T12:33:19.555Z,92.32
2022-12-23T12:37:23.006Z,92.75
2022-12-23T12:41:22.409Z,92.92
2022-12-23T12:45:22.965Z,93.18
2022-12-23T12:49:42.173Z,93.56
2022-12-23T12:54:05.680Z,93.82
2022-12-23T12:58:08.362Z,94.35
2022-12-23T13:02:40.231Z,93.93
2022-12-23T13:06:58.881Z,93.51
2022-12-23T13:10:57.918Z,93.92
2022-12-23T13:15:10.832Z,94.53
2022-12-23T13:19:28.924Z,94.92
2022-12-23T13:23:47.450Z,94.94
2022-12-23T13:28:13.023Z,95.11
2022-12-23T13:32:14.920Z,94.79
2022-12-23T13:36:53.759Z,94.79
2022-12-23T13:39:54.534Z,94.81
2022-12-23T13:44:06.566Z,94.73
2022-12-23T13:48:24.566Z,94.03
2022-12-23T13:52:43.921Z,94.06
2022-12-23T17:44:49.456Z,90.95
2022-12-23T17:48:49.118Z,91.24
2022-12-23T17:53:02.263Z,91.48
2022-12-23T17:57:01.406Z,91.34
2022-12-23T18:01:01.117Z,91.26
2022-12-23T18:05:02.482Z,91.67
2022-12-23T18:09:01.454Z,91.74
2022-12-23T18:13:02.257Z,91.66
2022-12-23T18:17:01.648Z,91.39
2022-12-23T18:21:00.866Z,91.32
2022-12-23T18:25:00.293Z,91.10
2022-12-23T18:28:59.641Z,90.88
2022-12-23T18:32:59.262Z,91.17
2022-12-23T18:36:59.301Z,91.10
2022-12-23T18:40:59.113Z,91.02
2022-12-23T18:44:58.989Z,90.80
2022-12-23T18:48:58.890Z,90.33
2022-12-23T18:53:25.137Z,90.12
2022-12-23T18:57:24.443Z,89.69
2022-12-23T19:01:23.535Z,89.71
2022-12-23T19:05:30.373Z,89.62
2022-12-23T19:09:29.822Z,89.13
2022-12-23T19:13:42.966Z,88.69
2022-12-23T19:17:42.539Z,88.02
2022-12-23T19:21:41.847Z,87.71
2022-12-23T19:25:55.619Z,87.80
2022-12-23T19:29:55.221Z,88.22
2022-12-23T19:33:54.620Z,88.36
2022-12-23T19:38:08.325Z,88.73
2022-12-23T19:42:08.404Z,88.88
2022-12-23T19:46:08.899Z,88.90
2022-12-23T19:50:08.762Z,88.69
2022-12-23T19:54:08.239Z,88.85
2022-12-23T19:58:07.524Z,88.68
2022-12-23T20:02:07.059Z,88.94
2022-12-23T20:06:22.259Z,88.92
2022-12-23T20:10:21.850Z,89.12
2022-12-23T20:14:22.008Z,89.12
2022-12-23T20:18:23.773Z,89.03
2022-12-23T20:21:59.492Z,88.98
2022-12-23T20:25:59.944Z,89.22
2022-12-23T20:29:59.663Z,89.25
2022-12-23T20:33:59.272Z,89.19
2022-12-23T20:37:59.094Z,89.56
2022-12-23T20:41:58.160Z,89.78
2022-12-23T20:45:57.205Z,89.99
2022-12-23T20:49:56.659Z,90.21
2022-12-23T20:53:59.976Z,90.16
2022-12-23T20:58:19.469Z,90.32
2022-12-23T21:02:18.626Z,90.09
2022-12-23T21:06:18.766Z,90.34
2022-12-23T21:10:20.974Z,91.58
2022-12-23T21:14:01.144Z,91.14
2022-12-23T21:18:04.138Z,90.98
2022-12-23T21:22:04.060Z,90.20
2022-12-23T21:26:18.601Z,90.45
2022-12-23T21:30:18.247Z,90.57
2022-12-23T21:34:18.086Z,90.04
2022-12-23T21:38:18.868Z,89.73
2022-12-23T21:41:55.473Z,89.58
2022-12-23T21:46:11.928Z,89.70
2022-12-23T21:50:11.834Z,89.64
2022-12-23T21:54:12.252Z,89.41
2022-12-23T21:58:12.074Z,89.78
2022-12-23T22:02:17.736Z,90.11
2022-12-23T22:06:21.628Z,90.52
2022-12-23T22:10:20.975Z,90.28
2022-12-23T22:14:20.886Z,90.19
2022-12-23T22:18:20.005Z,90.23
2022-12-23T22:22:19.518Z,90.77
2022-12-23T22:26:25.489Z,91.53
2022-12-23T22:30:39.232Z,91.67
2022-12-23T22:34:39.132Z,91.56
2022-12-23T22:38:38.351Z,91.30
2022-12-23T22:42:37.378Z,91.30
2022-12-23T22:46:50.352Z,91.17
2022-12-23T22:50:49.581Z,91.36
2022-12-23T22:54:49.068Z,91.52
2022-12-23T22:58:48.577Z,91.43
2022-12-23T23:02:48.273Z,91.45
2022-12-23T23:06:47.866Z,91.55
2022-12-23T23:10:47.152Z,91.26
2022-12-23T23:15:00.916Z,91.31
2022-12-23T23:19:01.271Z,91.06
2022-12-23T23:23:00.819Z,91.02
2022-12-23T23:27:00.298Z,90.87
2022-12-23T23:31:31.859Z,90.90
2022-12-23T23:35:19.536Z,90.59
2022-12-23T23:39:18.973Z,90.78
2022-12-23T23:43:18.638Z,90.73
2022-12-23T23:47:18.215Z,90.50
2022-12-23T23:51:18.484Z,90.42
2022-12-23T23:55:18.082Z,90.30
2022-12-23T23:59:17.497Z,90.00
